sensor_id;sensor_type;location;lat;lon;timestamp;P1;durP1;ratioP1;P2;durP2;ratioP2
13951;SDS011;39535;52.192;9.886;2024-03-06T00:00:35;14.50;;;13.03;;
13951;SDS011;39535;52.192;9.886;2024-03-06T00:03:02;13.83;;;12.63;;
13951;SDS011;39535;52.192;9.886;2024-03-06T00:05:29;15.43;;;14.03;;
13951;SDS011;39535;52.192;9.886;2024-03-06T00:07:56;13.50;;;12.23;;
13951;SDS011;39535;52.192;9.886;2024-03-06T00:10:23;14.27;;;12.93;;
13951;SDS011;39535;52.192;9.886;2024-03-06T00:12:49;14.67;;;13.03;;
13951;SDS011;39535;52.192;9.886;2024-03-06T00:15:16;15.50;;;14.20;;
13951;SDS011;39535;52.192;9.886;2024-03-06T00:17:42;15.20;;;13.80;;
13951;SDS011;39535;52.192;9.886;2024-03-06T00:20:09;16.37;;;14.17;;
13951;SDS011;39535;52.192;9.886;2024-03-06T00:22:36;15.03;;;13.53;;
13951;SDS011;39535;52.192;9.886;2024-03-06T00:25:04;15.70;;;14.40;;
13951;SDS011;39535;52.192;9.886;2024-03-06T00:27:31;17.10;;;15.30;;
13951;SDS011;39535;52.192;9.886;2024-03-06T00:29:57;17.20;;;15.57;;
13951;SDS011;39535;52.192;9.886;2024-03-06T00:32:23;23.10;;;19.07;;
13951;SDS011;39535;52.192;9.886;2024-03-06T00:34:50;22.80;;;19.87;;
13951;SDS011;39535;52.192;9.886;2024-03-06T00:37:16;20.67;;;18.33;;
13951;SDS011;39535;52.192;9.886;2024-03-06T00:39:42;20.97;;;18.83;;
13951;SDS011;39535;52.192;9.886;2024-03-06T00:42:10;24.73;;;19.73;;
13951;SDS011;39535;52.192;9.886;2024-03-06T00:44:38;22.00;;;19.90;;
13951;SDS011;39535;52.192;9.886;2024-03-06T00:47:05;18.83;;;16.63;;
13951;SDS011;39535;52.192;9.886;2024-03-06T00:49:31;18.23;;;16.37;;
13951;SDS011;39535;52.192;9.886;2024-03-06T00:51:57;20.87;;;18.57;;
13951;SDS011;39535;52.192;9.886;2024-03-06T00:54:24;17.50;;;15.83;;
13951;SDS011;39535;52.192;9.886;2024-03-06T00:56:50;19.17;;;17.37;;
13951;SDS011;39535;52.192;9.886;2024-03-06T00:59:18;17.70;;;15.90;;
13951;SDS011;39535;52.192;9.886;2024-03-06T01:01:44;18.10;;;16.20;;
13951;SDS011;39535;52.192;9.886;2024-03-06T01:04:10;17.57;;;16.07;;
13951;SDS011;39535;52.192;9.886;2024-03-06T01:06:37;17.40;;;15.70;;
13951;SDS011;39535;52.192;9.886;2024-03-06T01:09:03;18.73;;;16.80;;
13951;SDS011;39535;52.192;9.886;2024-03-06T01:11:29;29.40;;;16.77;;
13951;SDS011;39535;52.192;9.886;2024-03-06T01:13:56;18.73;;;16.83;;
13951;SDS011;39535;52.192;9.886;2024-03-06T01:16:23;19.00;;;17.23;;
13951;SDS011;39535;52.192;9.886;2024-03-06T01:18:50;17.67;;;15.90;;
13951;SDS011;39535;52.192;9.886;2024-03-06T01:21:16;18.03;;;16.13;;
13951;SDS011;39535;52.192;9.886;2024-03-06T01:23:42;17.53;;;16.13;;
13951;SDS011;39535;52.192;9.886;2024-03-06T01:26:09;18.47;;;16.50;;
13951;SDS011;39535;52.192;9.886;2024-03-06T01:28:36;19.77;;;17.83;;
13951;SDS011;39535;52.192;9.886;2024-03-06T01:31:03;19.50;;;17.60;;
13951;SDS011;39535;52.192;9.886;2024-03-06T01:33:31;21.27;;;16.93;;
13951;SDS011;39535;52.192;9.886;2024-03-06T01:35:57;20.20;;;16.70;;
13951;SDS011;39535;52.192;9.886;2024-03-06T01:38:23;18.97;;;17.00;;
13951;SDS011;39535;52.192;9.886;2024-03-06T01:40:50;17.47;;;15.97;;
13951;SDS011;39535;52.192;9.886;2024-03-06T01:43:17;18.40;;;16.70;;
13951;SDS011;39535;52.192;9.886;2024-03-06T01:45:45;18.10;;;16.40;;
13951;SDS011;39535;52.192;9.886;2024-03-06T01:48:12;16.77;;;15.17;;
13951;SDS011;39535;52.192;9.886;2024-03-06T01:50:40;17.47;;;15.93;;
13951;SDS011;39535;52.192;9.886;2024-03-06T01:53:07;18.07;;;16.30;;
13951;SDS011;39535;52.192;9.886;2024-03-06T01:55:34;17.80;;;16.00;;
13951;SDS011;39535;52.192;9.886;2024-03-06T01:58:01;19.27;;;17.27;;
13951;SDS011;39535;52.192;9.886;2024-03-06T02:00:27;17.43;;;15.87;;
13951;SDS011;39535;52.192;9.886;2024-03-06T02:02:54;17.63;;;16.03;;
13951;SDS011;39535;52.192;9.886;2024-03-06T02:05:21;17.67;;;15.90;;
13951;SDS011;39535;52.192;9.886;2024-03-06T02:07:49;19.43;;;17.37;;
13951;SDS011;39535;52.192;9.886;2024-03-06T02:10:17;19.70;;;17.43;;
13951;SDS011;39535;52.192;9.886;2024-03-06T02:12:44;18.60;;;16.93;;
13951;SDS011;39535;52.192;9.886;2024-03-06T02:15:10;18.73;;;16.50;;
13951;SDS011;39535;52.192;9.886;2024-03-06T02:17:38;19.13;;;16.97;;
13951;SDS011;39535;52.192;9.886;2024-03-06T02:20:06;18.00;;;16.40;;
13951;SDS011;39535;52.192;9.886;2024-03-06T02:22:38;17.67;;;15.90;;
13951;SDS011;39535;52.192;9.886;2024-03-06T02:25:05;22.10;;;17.07;;
13951;SDS011;39535;52.192;9.886;2024-03-06T02:27:32;21.00;;;17.47;;
13951;SDS011;39535;52.192;9.886;2024-03-06T02:29:59;18.30;;;16.47;;
13951;SDS011;39535;52.192;9.886;2024-03-06T02:32:25;19.33;;;17.33;;
13951;SDS011;39535;52.192;9.886;2024-03-06T02:34:52;17.77;;;16.17;;
13951;SDS011;39535;52.192;9.886;2024-03-06T02:37:18;18.27;;;16.43;;
13951;SDS011;39535;52.192;9.886;2024-03-06T02:39:46;22.47;;;17.00;;
13951;SDS011;39535;52.192;9.886;2024-03-06T02:42:12;19.30;;;17.33;;
13951;SDS011;39535;52.192;9.886;2024-03-06T02:44:38;17.63;;;16.03;;
13951;SDS011;39535;52.192;9.886;2024-03-06T02:47:05;18.60;;;16.27;;
13951;SDS011;39535;52.192;9.886;2024-03-06T02:49:31;18.63;;;16.93;;
13951;SDS011;39535;52.192;9.886;2024-03-06T02:51:57;17.90;;;16.20;;
13951;SDS011;39535;52.192;9.886;2024-03-06T02:54:26;18.33;;;16.67;;
13951;SDS011;39535;52.192;9.886;2024-03-06T02:56:53;18.37;;;16.77;;
13951;SDS011;39535;52.192;9.886;2024-03-06T02:59:20;17.83;;;16.30;;
13951;SDS011;39535;52.192;9.886;2024-03-06T03:01:46;17.87;;;16.17;;
13951;SDS011;39535;52.192;9.886;2024-03-06T03:04:13;19.77;;;16.23;;
13951;SDS011;39535;52.192;9.886;2024-03-06T03:06:39;19.20;;;17.50;;
13951;SDS011;39535;52.192;9.886;2024-03-06T03:09:05;18.43;;;16.53;;
13951;SDS011;39535;52.192;9.886;2024-03-06T03:11:32;18.20;;;16.53;;
13951;SDS011;39535;52.192;9.886;2024-03-06T03:14:00;18.30;;;16.47;;
13951;SDS011;39535;52.192;9.886;2024-03-06T03:16:26;18.63;;;16.53;;
13951;SDS011;39535;52.192;9.886;2024-03-06T03:18:53;18.30;;;16.53;;
13951;SDS011;39535;52.192;9.886;2024-03-06T03:21:19;18.80;;;16.80;;
13951;SDS011;39535;52.192;9.886;2024-03-06T03:23:47;18.50;;;16.90;;
13951;SDS011;39535;52.192;9.886;2024-03-06T03:26:14;18.77;;;16.23;;
13951;SDS011;39535;52.192;9.886;2024-03-06T03:28:41;18.43;;;16.73;;
13951;SDS011;39535;52.192;9.886;2024-03-06T03:31:09;17.97;;;16.07;;
13951;SDS011;39535;52.192;9.886;2024-03-06T03:33:35;18.07;;;16.47;;
13951;SDS011;39535;52.192;9.886;2024-03-06T03:36:03;19.43;;;17.43;;
13951;SDS011;39535;52.192;9.886;2024-03-06T03:38:30;19.87;;;17.83;;
13951;SDS011;39535;52.192;9.886;2024-03-06T03:40:57;17.93;;;16.30;;
13951;SDS011;39535;52.192;9.886;2024-03-06T03:43:23;19.20;;;17.17;;
13951;SDS011;39535;52.192;9.886;2024-03-06T03:45:49;18.20;;;16.50;;
13951;SDS011;39535;52.192;9.886;2024-03-06T03:48:17;19.40;;;17.60;;
13951;SDS011;39535;52.192;9.886;2024-03-06T03:50:43;18.60;;;17.00;;
13951;SDS011;39535;52.192;9.886;2024-03-06T03:53:10;19.03;;;17.33;;
13951;SDS011;39535;52.192;9.886;2024-03-06T03:55:37;18.93;;;16.07;;
13951;SDS011;39535;52.192;9.886;2024-03-06T03:58:03;21.10;;;16.90;;
13951;SDS011;39535;52.192;9.886;2024-03-06T04:00:32;22.17;;;17.17;;
13951;SDS011;39535;52.192;9.886;2024-03-06T04:02:58;18.17;;;16.40;;
13951;SDS011;39535;52.192;9.886;2024-03-06T04:05:26;18.90;;;17.10;;
13951;SDS011;39535;52.192;9.886;2024-03-06T04:07:52;18.50;;;16.80;;
13951;SDS011;39535;52.192;9.886;2024-03-06T04:10:19;17.53;;;16.03;;
13951;SDS011;39535;52.192;9.886;2024-03-06T04:12:46;18.53;;;16.83;;
13951;SDS011;39535;52.192;9.886;2024-03-06T04:15:12;17.73;;;16.03;;
13951;SDS011;39535;52.192;9.886;2024-03-06T04:17:38;18.57;;;16.77;;
13951;SDS011;39535;52.192;9.886;2024-03-06T04:20:06;19.03;;;17.13;;
13951;SDS011;39535;52.192;9.886;2024-03-06T04:22:34;18.93;;;16.93;;
13951;SDS011;39535;52.192;9.886;2024-03-06T04:25:00;18.93;;;17.03;;
13951;SDS011;39535;52.192;9.886;2024-03-06T04:27:29;18.60;;;16.77;;
13951;SDS011;39535;52.192;9.886;2024-03-06T04:29:55;18.77;;;17.07;;
13951;SDS011;39535;52.192;9.886;2024-03-06T04:32:21;18.57;;;16.70;;
13951;SDS011;39535;52.192;9.886;2024-03-06T04:34:48;19.27;;;17.37;;
13951;SDS011;39535;52.192;9.886;2024-03-06T04:37:14;17.83;;;16.10;;
13951;SDS011;39535;52.192;9.886;2024-03-06T04:39:42;17.73;;;16.13;;
13951;SDS011;39535;52.192;9.886;2024-03-06T04:42:08;18.73;;;16.80;;
13951;SDS011;39535;52.192;9.886;2024-03-06T04:44:34;18.90;;;17.07;;
13951;SDS011;39535;52.192;9.886;2024-03-06T04:47:02;17.97;;;16.10;;
13951;SDS011;39535;52.192;9.886;2024-03-06T04:49:32;18.50;;;16.63;;
13951;SDS011;39535;52.192;9.886;2024-03-06T04:51:59;16.60;;;15.00;;
13951;SDS011;39535;52.192;9.886;2024-03-06T04:54:25;18.57;;;16.60;;
13951;SDS011;39535;52.192;9.886;2024-03-06T04:56:53;18.47;;;16.87;;
13951;SDS011;39535;52.192;9.886;2024-03-06T04:59:19;18.10;;;16.33;;
13951;SDS011;39535;52.192;9.886;2024-03-06T05:01:46;19.33;;;17.37;;
13951;SDS011;39535;52.192;9.886;2024-03-06T05:04:12;19.43;;;16.80;;
13951;SDS011;39535;52.192;9.886;2024-03-06T05:06:39;17.70;;;16.00;;
13951;SDS011;39535;52.192;9.886;2024-03-06T05:09:05;18.27;;;16.57;;
13951;SDS011;39535;52.192;9.886;2024-03-06T05:11:32;16.63;;;15.23;;
13951;SDS011;39535;52.192;9.886;2024-03-06T05:14:00;18.13;;;16.47;;
13951;SDS011;39535;52.192;9.886;2024-03-06T05:16:27;17.80;;;16.10;;
13951;SDS011;39535;52.192;9.886;2024-03-06T05:18:53;18.53;;;16.60;;
13951;SDS011;39535;52.192;9.886;2024-03-06T05:21:19;17.77;;;15.93;;
13951;SDS011;39535;52.192;9.886;2024-03-06T05:23:47;20.27;;;16.13;;
13951;SDS011;39535;52.192;9.886;2024-03-06T05:26:13;17.60;;;15.53;;
13951;SDS011;39535;52.192;9.886;2024-03-06T05:28:39;18.13;;;16.37;;
13951;SDS011;39535;52.192;9.886;2024-03-06T05:31:15;17.83;;;16.13;;
13951;SDS011;39535;52.192;9.886;2024-03-06T05:33:42;18.97;;;17.10;;
13951;SDS011;39535;52.192;9.886;2024-03-06T05:36:09;17.10;;;15.50;;
13951;SDS011;39535;52.192;9.886;2024-03-06T05:38:35;17.77;;;15.97;;
13951;SDS011;39535;52.192;9.886;2024-03-06T05:41:01;17.57;;;15.83;;
13951;SDS011;39535;52.192;9.886;2024-03-06T05:43:28;17.47;;;15.60;;
13951;SDS011;39535;52.192;9.886;2024-03-06T05:45:54;17.40;;;15.70;;
13951;SDS011;39535;52.192;9.886;2024-03-06T05:48:22;17.33;;;15.70;;
13951;SDS011;39535;52.192;9.886;2024-03-06T05:50:49;18.13;;;16.33;;
13951;SDS011;39535;52.192;9.886;2024-03-06T05:53:15;17.10;;;15.60;;
13951;SDS011;39535;52.192;9.886;2024-03-06T05:55:42;20.17;;;16.00;;
13951;SDS011;39535;52.192;9.886;2024-03-06T05:58:08;18.37;;;15.53;;
13951;SDS011;39535;52.192;9.886;2024-03-06T06:00:34;19.17;;;17.17;;
13951;SDS011;39535;52.192;9.886;2024-03-06T06:03:01;21.83;;;17.63;;
13951;SDS011;39535;52.192;9.886;2024-03-06T06:05:29;20.13;;;17.63;;
13951;SDS011;39535;52.192;9.886;2024-03-06T06:07:55;18.90;;;17.20;;
13951;SDS011;39535;52.192;9.886;2024-03-06T06:10:22;17.73;;;16.10;;
13951;SDS011;39535;52.192;9.886;2024-03-06T06:12:48;17.80;;;16.20;;
13951;SDS011;39535;52.192;9.886;2024-03-06T06:15:15;19.23;;;15.83;;
13951;SDS011;39535;52.192;9.886;2024-03-06T06:17:41;17.20;;;15.50;;
13951;SDS011;39535;52.192;9.886;2024-03-06T06:20:09;19.00;;;16.43;;
13951;SDS011;39535;52.192;9.886;2024-03-06T06:22:41;17.30;;;15.60;;
13951;SDS011;39535;52.192;9.886;2024-03-06T06:25:07;18.70;;;16.80;;
13951;SDS011;39535;52.192;9.886;2024-03-06T06:27:34;19.63;;;17.03;;
13951;SDS011;39535;52.192;9.886;2024-03-06T06:30:01;17.60;;;16.00;;
13951;SDS011;39535;52.192;9.886;2024-03-06T06:32:27;18.53;;;16.77;;
13951;SDS011;39535;52.192;9.886;2024-03-06T06:34:54;17.93;;;16.53;;
13951;SDS011;39535;52.192;9.886;2024-03-06T06:37:21;18.13;;;16.27;;
13951;SDS011;39535;52.192;9.886;2024-03-06T06:39:49;17.60;;;16.00;;
13951;SDS011;39535;52.192;9.886;2024-03-06T06:42:15;18.07;;;16.17;;
13951;SDS011;39535;52.192;9.886;2024-03-06T06:44:41;19.10;;;17.07;;
13951;SDS011;39535;52.192;9.886;2024-03-06T06:47:08;19.47;;;16.17;;
13951;SDS011;39535;52.192;9.886;2024-03-06T06:49:34;17.53;;;15.37;;
13951;SDS011;39535;52.192;9.886;2024-03-06T06:52:00;17.73;;;16.00;;
13951;SDS011;39535;52.192;9.886;2024-03-06T06:54:27;23.07;;;16.47;;
13951;SDS011;39535;52.192;9.886;2024-03-06T06:56:54;16.67;;;15.07;;
13951;SDS011;39535;52.192;9.886;2024-03-06T06:59:21;17.33;;;15.70;;
13951;SDS011;39535;52.192;9.886;2024-03-06T07:01:48;18.27;;;15.60;;
13951;SDS011;39535;52.192;9.886;2024-03-06T07:04:14;16.80;;;15.40;;
13951;SDS011;39535;52.192;9.886;2024-03-06T07:06:42;17.63;;;15.83;;
13951;SDS011;39535;52.192;9.886;2024-03-06T07:09:08;17.83;;;16.00;;
13951;SDS011;39535;52.192;9.886;2024-03-06T07:11:35;17.97;;;16.23;;
13951;SDS011;39535;52.192;9.886;2024-03-06T07:14:02;17.77;;;16.17;;
13951;SDS011;39535;52.192;9.886;2024-03-06T07:16:29;17.80;;;16.10;;
13951;SDS011;39535;52.192;9.886;2024-03-06T07:18:55;18.37;;;16.57;;
13951;SDS011;39535;52.192;9.886;2024-03-06T07:21:22;20.33;;;15.50;;
13951;SDS011;39535;52.192;9.886;2024-03-06T07:23:48;18.57;;;16.67;;
13951;SDS011;39535;52.192;9.886;2024-03-06T07:26:15;17.63;;;14.93;;
13951;SDS011;39535;52.192;9.886;2024-03-06T07:28:41;18.33;;;16.63;;
13951;SDS011;39535;52.192;9.886;2024-03-06T07:31:09;19.07;;;16.50;;
13951;SDS011;39535;52.192;9.886;2024-03-06T07:33:35;18.60;;;16.83;;
13951;SDS011;39535;52.192;9.886;2024-03-06T07:36:03;19.47;;;17.43;;
13951;SDS011;39535;52.192;9.886;2024-03-06T07:38:29;18.80;;;16.83;;
13951;SDS011;39535;52.192;9.886;2024-03-06T07:40:56;21.10;;;16.43;;
13951;SDS011;39535;52.192;9.886;2024-03-06T07:43:22;17.87;;;16.07;;
13951;SDS011;39535;52.192;9.886;2024-03-06T07:45:49;19.07;;;17.07;;
13951;SDS011;39535;52.192;9.886;2024-03-06T07:48:16;18.83;;;17.23;;
13951;SDS011;39535;52.192;9.886;2024-03-06T07:50:43;17.90;;;16.17;;
13951;SDS011;39535;52.192;9.886;2024-03-06T07:53:09;18.27;;;16.53;;
13951;SDS011;39535;52.192;9.886;2024-03-06T07:55:35;18.53;;;16.63;;
13951;SDS011;39535;52.192;9.886;2024-03-06T07:58:04;19.30;;;16.17;;
13951;SDS011;39535;52.192;9.886;2024-03-06T08:00:30;18.40;;;16.70;;
13951;SDS011;39535;52.192;9.886;2024-03-06T08:02:56;18.80;;;16.90;;
13951;SDS011;39535;52.192;9.886;2024-03-06T08:05:26;20.07;;;18.07;;
13951;SDS011;39535;52.192;9.886;2024-03-06T08:07:52;20.10;;;18.10;;
13951;SDS011;39535;52.192;9.886;2024-03-06T08:10:18;19.87;;;17.87;;
13951;SDS011;39535;52.192;9.886;2024-03-06T08:12:45;18.83;;;16.87;;
13951;SDS011;39535;52.192;9.886;2024-03-06T08:15:13;19.63;;;17.53;;
13951;SDS011;39535;52.192;9.886;2024-03-06T08:17:40;20.00;;;18.10;;
13951;SDS011;39535;52.192;9.886;2024-03-06T08:20:08;18.83;;;16.97;;
13951;SDS011;39535;52.192;9.886;2024-03-06T08:22:38;18.60;;;16.67;;
13951;SDS011;39535;52.192;9.886;2024-03-06T08:25:06;19.23;;;17.27;;
13951;SDS011;39535;52.192;9.886;2024-03-06T08:27:33;20.50;;;18.20;;
13951;SDS011;39535;52.192;9.886;2024-03-06T08:30:00;18.03;;;16.30;;
13951;SDS011;39535;52.192;9.886;2024-03-06T08:32:28;18.93;;;17.13;;
13951;SDS011;39535;52.192;9.886;2024-03-06T08:34:55;21.33;;;17.67;;
13951;SDS011;39535;52.192;9.886;2024-03-06T08:37:21;18.83;;;17.03;;
13951;SDS011;39535;52.192;9.886;2024-03-06T08:39:49;19.67;;;17.73;;
13951;SDS011;39535;52.192;9.886;2024-03-06T08:42:15;18.37;;;16.77;;
13951;SDS011;39535;52.192;9.886;2024-03-06T08:44:43;20.37;;;18.40;;
13951;SDS011;39535;52.192;9.886;2024-03-06T08:47:09;19.37;;;17.27;;
13951;SDS011;39535;52.192;9.886;2024-03-06T08:49:36;19.87;;;17.87;;
13951;SDS011;39535;52.192;9.886;2024-03-06T08:52:08;20.47;;;18.37;;
13951;SDS011;39535;52.192;9.886;2024-03-06T08:54:34;23.27;;;18.17;;
13951;SDS011;39535;52.192;9.886;2024-03-06T08:57:02;18.77;;;16.90;;
13951;SDS011;39535;52.192;9.886;2024-03-06T08:59:29;20.00;;;18.00;;
13951;SDS011;39535;52.192;9.886;2024-03-06T09:01:56;19.53;;;17.57;;
13951;SDS011;39535;52.192;9.886;2024-03-06T09:04:22;22.20;;;17.93;;
13951;SDS011;39535;52.192;9.886;2024-03-06T09:06:49;19.53;;;17.73;;
13951;SDS011;39535;52.192;9.886;2024-03-06T09:09:15;19.97;;;17.87;;
13951;SDS011;39535;52.192;9.886;2024-03-06T09:11:41;19.40;;;17.47;;
13951;SDS011;39535;52.192;9.886;2024-03-06T09:14:09;21.03;;;18.30;;
13951;SDS011;39535;52.192;9.886;2024-03-06T09:16:35;25.03;;;19.47;;
13951;SDS011;39535;52.192;9.886;2024-03-06T09:19:02;18.27;;;16.33;;
13951;SDS011;39535;52.192;9.886;2024-03-06T09:21:28;20.13;;;18.07;;
13951;SDS011;39535;52.192;9.886;2024-03-06T09:23:55;20.93;;;18.73;;
13951;SDS011;39535;52.192;9.886;2024-03-06T09:26:21;20.43;;;18.30;;
13951;SDS011;39535;52.192;9.886;2024-03-06T09:28:47;20.47;;;18.23;;
13951;SDS011;39535;52.192;9.886;2024-03-06T09:31:15;23.40;;;19.67;;
13951;SDS011;39535;52.192;9.886;2024-03-06T09:33:42;19.87;;;18.00;;
13951;SDS011;39535;52.192;9.886;2024-03-06T09:36:10;21.40;;;19.07;;
13951;SDS011;39535;52.192;9.886;2024-03-06T09:38:38;20.03;;;18.17;;
13951;SDS011;39535;52.192;9.886;2024-03-06T09:41:05;19.20;;;17.40;;
13951;SDS011;39535;52.192;9.886;2024-03-06T09:43:33;20.07;;;18.30;;
13951;SDS011;39535;52.192;9.886;2024-03-06T09:45:59;19.80;;;17.90;;
13951;SDS011;39535;52.192;9.886;2024-03-06T09:48:28;23.97;;;19.00;;
13951;SDS011;39535;52.192;9.886;2024-03-06T09:50:57;21.13;;;18.77;;
13951;SDS011;39535;52.192;9.886;2024-03-06T09:53:27;20.20;;;18.20;;
13951;SDS011;39535;52.192;9.886;2024-03-06T09:55:54;20.63;;;18.83;;
13951;SDS011;39535;52.192;9.886;2024-03-06T09:58:22;20.80;;;18.73;;
13951;SDS011;39535;52.192;9.886;2024-03-06T10:00:49;20.03;;;17.83;;
13951;SDS011;39535;52.192;9.886;2024-03-06T10:03:16;21.97;;;19.33;;
13951;SDS011;39535;52.192;9.886;2024-03-06T10:05:44;20.93;;;17.80;;
13951;SDS011;39535;52.192;9.886;2024-03-06T10:09:14;22.83;;;19.63;;
13951;SDS011;39535;52.192;9.886;2024-03-06T10:11:14;27.03;;;20.10;;
13951;SDS011;39535;52.192;9.886;2024-03-06T10:13:42;27.50;;;21.23;;
13951;SDS011;39535;52.192;9.886;2024-03-06T10:16:08;21.17;;;19.00;;
13951;SDS011;39535;52.192;9.886;2024-03-06T10:18:36;21.80;;;19.30;;
13951;SDS011;39535;52.192;9.886;2024-03-06T10:21:06;23.33;;;18.93;;
13951;SDS011;39535;52.192;9.886;2024-03-06T10:23:34;21.43;;;19.27;;
13951;SDS011;39535;52.192;9.886;2024-03-06T10:26:04;21.20;;;19.10;;
13951;SDS011;39535;52.192;9.886;2024-03-06T10:31:57;20.90;;;18.77;;
13951;SDS011;39535;52.192;9.886;2024-03-06T10:34:25;23.83;;;19.13;;
13951;SDS011;39535;52.192;9.886;2024-03-06T10:36:55;22.00;;;19.73;;
13951;SDS011;39535;52.192;9.886;2024-03-06T10:39:22;22.47;;;20.10;;
13951;SDS011;39535;52.192;9.886;2024-03-06T10:42:06;21.33;;;19.10;;
13951;SDS011;39535;52.192;9.886;2024-03-06T10:44:33;22.80;;;20.00;;
13951;SDS011;39535;52.192;9.886;2024-03-06T10:47:02;24.73;;;19.53;;
13951;SDS011;39535;52.192;9.886;2024-03-06T10:49:31;20.67;;;18.67;;
13951;SDS011;39535;52.192;9.886;2024-03-06T10:52:01;21.43;;;19.30;;
13951;SDS011;39535;52.192;9.886;2024-03-06T10:54:32;21.67;;;18.10;;
13951;SDS011;39535;52.192;9.886;2024-03-06T10:57:00;20.10;;;18.00;;
13951;SDS011;39535;52.192;9.886;2024-03-06T10:59:28;20.37;;;18.33;;
13951;SDS011;39535;52.192;9.886;2024-03-06T11:01:55;20.87;;;18.67;;
13951;SDS011;39535;52.192;9.886;2024-03-06T11:04:25;21.80;;;19.60;;
13951;SDS011;39535;52.192;9.886;2024-03-06T11:06:53;20.57;;;18.63;;
13951;SDS011;39535;52.192;9.886;2024-03-06T11:09:21;23.53;;;19.50;;
13951;SDS011;39535;52.192;9.886;2024-03-06T11:11:48;19.27;;;17.37;;
13951;SDS011;39535;52.192;9.886;2024-03-06T11:14:16;19.60;;;17.67;;
13951;SDS011;39535;52.192;9.886;2024-03-06T11:16:56;22.20;;;17.83;;
13951;SDS011;39535;52.192;9.886;2024-03-06T11:19:24;20.47;;;18.47;;
13951;SDS011;39535;52.192;9.886;2024-03-06T11:21:50;20.07;;;18.07;;
13951;SDS011;39535;52.192;9.886;2024-03-06T11:24:21;20.77;;;17.27;;
13951;SDS011;39535;52.192;9.886;2024-03-06T11:26:49;19.53;;;17.53;;
13951;SDS011;39535;52.192;9.886;2024-03-06T11:29:16;20.20;;;18.03;;
13951;SDS011;39535;52.192;9.886;2024-03-06T11:31:59;19.10;;;17.27;;
13951;SDS011;39535;52.192;9.886;2024-03-06T11:34:32;19.97;;;18.20;;
13951;SDS011;39535;52.192;9.886;2024-03-06T11:36:58;18.90;;;17.07;;
13951;SDS011;39535;52.192;9.886;2024-03-06T11:39:32;19.90;;;17.83;;
13951;SDS011;39535;52.192;9.886;2024-03-06T11:42:01;20.97;;;18.83;;
13951;SDS011;39535;52.192;9.886;2024-03-06T11:44:28;19.07;;;17.07;;
13951;SDS011;39535;52.192;9.886;2024-03-06T11:46:58;20.00;;;18.10;;
13951;SDS011;39535;52.192;9.886;2024-03-06T11:49:26;20.47;;;18.23;;
13951;SDS011;39535;52.192;9.886;2024-03-06T11:51:54;18.63;;;16.87;;
13951;SDS011;39535;52.192;9.886;2024-03-06T11:54:22;20.27;;;18.23;;
13951;SDS011;39535;52.192;9.886;2024-03-06T11:56:52;19.13;;;17.20;;
13951;SDS011;39535;52.192;9.886;2024-03-06T11:59:20;19.53;;;17.30;;
13951;SDS011;39535;52.192;9.886;2024-03-06T12:01:47;21.97;;;17.10;;
13951;SDS011;39535;52.192;9.886;2024-03-06T12:04:13;20.43;;;18.13;;
13951;SDS011;39535;52.192;9.886;2024-03-06T12:06:40;20.07;;;17.30;;
13951;SDS011;39535;52.192;9.886;2024-03-06T12:09:06;19.93;;;17.90;;
13951;SDS011;39535;52.192;9.886;2024-03-06T12:11:36;19.50;;;16.97;;
13951;SDS011;39535;52.192;9.886;2024-03-06T12:14:04;20.50;;;17.43;;
13951;SDS011;39535;52.192;9.886;2024-03-06T12:16:31;18.20;;;16.43;;
13951;SDS011;39535;52.192;9.886;2024-03-06T12:18:57;21.50;;;16.67;;
13951;SDS011;39535;52.192;9.886;2024-03-06T12:21:27;17.87;;;16.17;;
13951;SDS011;39535;52.192;9.886;2024-03-06T12:24:01;19.57;;;16.93;;
13951;SDS011;39535;52.192;9.886;2024-03-06T12:26:28;18.57;;;16.87;;
13951;SDS011;39535;52.192;9.886;2024-03-06T12:29:03;20.13;;;17.90;;
13951;SDS011;39535;52.192;9.886;2024-03-06T12:31:31;18.10;;;16.60;;
13951;SDS011;39535;52.192;9.886;2024-03-06T12:33:58;23.73;;;17.77;;
13951;SDS011;39535;52.192;9.886;2024-03-06T12:36:27;20.67;;;17.30;;
13951;SDS011;39535;52.192;9.886;2024-03-06T12:38:55;23.83;;;17.33;;
13951;SDS011;39535;52.192;9.886;2024-03-06T12:41:21;18.90;;;17.10;;
13951;SDS011;39535;52.192;9.886;2024-03-06T12:43:48;19.37;;;17.33;;
13951;SDS011;39535;52.192;9.886;2024-03-06T12:46:16;19.37;;;17.37;;
13951;SDS011;39535;52.192;9.886;2024-03-06T12:48:42;19.30;;;17.40;;
13951;SDS011;39535;52.192;9.886;2024-03-06T12:51:09;20.00;;;18.20;;
13951;SDS011;39535;52.192;9.886;2024-03-06T12:53:36;20.23;;;18.13;;
13951;SDS011;39535;52.192;9.886;2024-03-06T12:56:02;19.33;;;17.53;;
13951;SDS011;39535;52.192;9.886;2024-03-06T12:58:29;19.43;;;17.60;;
13951;SDS011;39535;52.192;9.886;2024-03-06T13:00:56;19.83;;;18.03;;
13951;SDS011;39535;52.192;9.886;2024-03-06T13:03:25;20.17;;;18.00;;
13951;SDS011;39535;52.192;9.886;2024-03-06T13:05:51;21.13;;;18.33;;
13951;SDS011;39535;52.192;9.886;2024-03-06T13:08:17;23.03;;;17.37;;
13951;SDS011;39535;52.192;9.886;2024-03-06T13:10:44;19.43;;;17.50;;
13951;SDS011;39535;52.192;9.886;2024-03-06T13:13:11;19.20;;;17.50;;
13951;SDS011;39535;52.192;9.886;2024-03-06T13:15:37;23.40;;;17.83;;
13951;SDS011;39535;52.192;9.886;2024-03-06T13:18:04;21.57;;;17.77;;
13951;SDS011;39535;52.192;9.886;2024-03-06T13:20:32;21.10;;;17.50;;
13951;SDS011;39535;52.192;9.886;2024-03-06T13:22:59;19.13;;;17.23;;
13951;SDS011;39535;52.192;9.886;2024-03-06T13:25:26;19.00;;;17.03;;
13951;SDS011;39535;52.192;9.886;2024-03-06T13:27:53;19.60;;;17.77;;
13951;SDS011;39535;52.192;9.886;2024-03-06T13:30:20;19.67;;;17.67;;
13951;SDS011;39535;52.192;9.886;2024-03-06T13:32:48;20.70;;;18.77;;
13951;SDS011;39535;52.192;9.886;2024-03-06T13:35:14;23.30;;;18.07;;
13951;SDS011;39535;52.192;9.886;2024-03-06T13:37:43;26.17;;;18.80;;
13951;SDS011;39535;52.192;9.886;2024-03-06T13:40:10;21.27;;;18.33;;
13951;SDS011;39535;52.192;9.886;2024-03-06T13:42:38;23.03;;;19.00;;
13951;SDS011;39535;52.192;9.886;2024-03-06T13:45:05;22.60;;;18.03;;
13951;SDS011;39535;52.192;9.886;2024-03-06T13:47:36;19.67;;;17.83;;
13951;SDS011;39535;52.192;9.886;2024-03-06T13:50:03;22.27;;;18.80;;
13951;SDS011;39535;52.192;9.886;2024-03-06T13:52:31;21.07;;;18.87;;
13951;SDS011;39535;52.192;9.886;2024-03-06T13:55:00;19.70;;;17.77;;
13951;SDS011;39535;52.192;9.886;2024-03-06T13:57:29;20.83;;;18.83;;
13951;SDS011;39535;52.192;9.886;2024-03-06T13:59:58;21.63;;;19.43;;
13951;SDS011;39535;52.192;9.886;2024-03-06T14:02:24;22.13;;;18.23;;
13951;SDS011;39535;52.192;9.886;2024-03-06T14:04:51;22.47;;;19.83;;
13951;SDS011;39535;52.192;9.886;2024-03-06T14:07:17;26.47;;;18.50;;
13951;SDS011;39535;52.192;9.886;2024-03-06T14:09:43;21.53;;;18.70;;
13951;SDS011;39535;52.192;9.886;2024-03-06T14:12:11;23.30;;;20.13;;
13951;SDS011;39535;52.192;9.886;2024-03-06T14:14:37;22.77;;;19.10;;
13951;SDS011;39535;52.192;9.886;2024-03-06T14:17:04;21.67;;;19.27;;
13951;SDS011;39535;52.192;9.886;2024-03-06T14:19:30;22.53;;;19.77;;
13951;SDS011;39535;52.192;9.886;2024-03-06T14:21:57;22.83;;;19.27;;
13951;SDS011;39535;52.192;9.886;2024-03-06T14:24:23;20.97;;;18.20;;